Strona główna
METAR-TAF:

METAR-TAF

Lotnisko :

Port lotniczy Berlin-Schönefeld

Berlin-Schönefeld, Niemcy

Szerokość geograficzna: 52-23N, Długość geograficzna: 013-31E, wysokość: 47 m

Aktualna obserwacja pogody

Raport powstał 14 minut temu, godzina 22:20 UTC
Wiatr 8 kt od zachodnio-północny zachód
Temperatura 21°C
Wilgotność 69%
Ciśnienie 1018 hPa
Widzialność 10 km lub więcej
Brak chmur poniżej 1500 m i brak chmur cumulonimbus

METAR: EDDB 202220Z 30008KT CAVOK 21/15 Q1018 NOSIG

czas: 00:34 (22:34 UTC)

Prognoza

Raport powstał 5 godziny i 34 minut temu, godzina 17:00 UTC
Prognoza ważna od 20 godzina 18 UTC do 21 godzina 18 UTC
Wiatr 12 kt od zachód
Widzialność 10 km lub więcej
Brak chmur poniżej 1500 m i brak chmur cumulonimbus
Stopniowe zmiany
od 20 godzina 18 UTC do 20 godzina 21 UTC
Wiatr 6 kt od północny zachód

TAF: EDDB 201700Z 2018/2118 28012KT CAVOK BECMG 2018/2021 31006KT

Obserwacja i prognoza pogody dla ponad 4000 lotnisk (raport METAR i TAF).

Dostępne stacje oznaczono żółtymi i czerwonymi punktami na mapie.

Najedź kursorem aby zobaczyć nazwę stacji.

Kliknij aby zobaczyć obserwacje i prognozy pogody.

Aby zmienić mapę: kliknij na zielony przycisk z czarnym krzyżykiem, aby powiększyć; na zielony przycisk z myślnikiem, aby pomniejszyć; na zielone strzałki, aby przejść do map sąsiednich.


METAR-TAF: